Terminal Aerodrome Forecast
Issued by NWS

Home | Current Version | Previous Version | Text Only | Print | Product List | Glossary On
Versions: 1 2 3 4 5 6 7 8 9 10 11 12
300
FTUS45 KRIW 241726
TAFLND
TAF
KLND 241726Z 2418/2518 VRB05KT P6SM SCT250
     FM241900 25013KT P6SM SCT110
     FM250100 25009KT P6SM SCT110 SCT150
     FM251000 VRB05KT P6SM BKN110=

USA.gov is the U.S. government's official web portal to all federal, state and local government web resources and services.